sensor_id;sensor_type;location;lat;lon;timestamp;P1;durP1;ratioP1;P2;durP2;ratioP2
12968;SDS011;6549;53.128;8.182;2022-07-12T00:01:33;1.50;;;1.40;;
12968;SDS011;6549;53.128;8.182;2022-07-12T00:04:33;1.40;;;1.30;;
12968;SDS011;6549;53.128;8.182;2022-07-12T00:07:33;1.50;;;1.40;;
12968;SDS011;6549;53.128;8.182;2022-07-12T00:10:34;1.60;;;1.50;;
12968;SDS011;6549;53.128;8.182;2022-07-12T00:13:34;2.10;;;1.55;;
12968;SDS011;6549;53.128;8.182;2022-07-12T00:16:35;2.42;;;1.60;;
12968;SDS011;6549;53.128;8.182;2022-07-12T00:19:35;1.65;;;1.55;;
12968;SDS011;6549;53.128;8.182;2022-07-12T00:22:35;1.40;;;1.30;;
12968;SDS011;6549;53.128;8.182;2022-07-12T00:25:36;1.60;;;1.45;;
12968;SDS011;6549;53.128;8.182;2022-07-12T00:28:36;1.40;;;1.30;;
12968;SDS011;6549;53.128;8.182;2022-07-12T00:31:36;1.67;;;1.50;;
12968;SDS011;6549;53.128;8.182;2022-07-12T00:34:37;1.95;;;1.52;;
12968;SDS011;6549;53.128;8.182;2022-07-12T00:37:37;1.90;;;1.50;;
12968;SDS011;6549;53.128;8.182;2022-07-12T00:40:37;1.50;;;1.40;;
12968;SDS011;6549;53.128;8.182;2022-07-12T00:43:38;1.70;;;1.58;;
12968;SDS011;6549;53.128;8.182;2022-07-12T00:46:38;1.38;;;1.27;;
12968;SDS011;6549;53.128;8.182;2022-07-12T00:49:38;1.40;;;1.30;;
12968;SDS011;6549;53.128;8.182;2022-07-12T00:52:40;1.80;;;1.33;;
12968;SDS011;6549;53.128;8.182;2022-07-12T00:55:41;1.58;;;1.40;;
12968;SDS011;6549;53.128;8.182;2022-07-12T00:58:42;2.13;;;1.70;;
12968;SDS011;6549;53.128;8.182;2022-07-12T01:01:43;1.65;;;1.55;;
12968;SDS011;6549;53.128;8.182;2022-07-12T01:04:45;2.15;;;1.60;;
12968;SDS011;6549;53.128;8.182;2022-07-12T01:07:46;2.35;;;1.50;;
12968;SDS011;6549;53.128;8.182;2022-07-12T01:10:47;1.77;;;1.60;;
12968;SDS011;6549;53.128;8.182;2022-07-12T01:13:49;3.63;;;1.70;;
12968;SDS011;6549;53.128;8.182;2022-07-12T01:16:50;2.97;;;1.67;;
12968;SDS011;6549;53.128;8.182;2022-07-12T01:19:53;1.80;;;1.65;;
12968;SDS011;6549;53.128;8.182;2022-07-12T01:22:55;1.75;;;1.50;;
12968;SDS011;6549;53.128;8.182;2022-07-12T01:26:00;1.55;;;1.45;;
12968;SDS011;6549;53.128;8.182;2022-07-12T01:29:01;1.65;;;1.55;;
12968;SDS011;6549;53.128;8.182;2022-07-12T01:32:05;1.60;;;1.50;;
12968;SDS011;6549;53.128;8.182;2022-07-12T01:35:25;2.08;;;1.80;;
12968;SDS011;6549;53.128;8.182;2022-07-12T01:38:25;2.05;;;1.75;;
12968;SDS011;6549;53.128;8.182;2022-07-12T01:41:25;1.45;;;1.30;;
12968;SDS011;6549;53.128;8.182;2022-07-12T01:44:27;2.78;;;1.83;;
12968;SDS011;6549;53.128;8.182;2022-07-12T01:47:28;1.90;;;1.80;;
12968;SDS011;6549;53.128;8.182;2022-07-12T01:50:31;1.65;;;1.55;;
12968;SDS011;6549;53.128;8.182;2022-07-12T01:53:31;2.10;;;1.73;;
12968;SDS011;6549;53.128;8.182;2022-07-12T01:56:31;1.80;;;1.70;;
12968;SDS011;6549;53.128;8.182;2022-07-12T01:59:32;1.85;;;1.60;;
12968;SDS011;6549;53.128;8.182;2022-07-12T02:02:33;2.92;;;2.10;;
12968;SDS011;6549;53.128;8.182;2022-07-12T02:05:34;2.75;;;1.80;;
12968;SDS011;6549;53.128;8.182;2022-07-12T02:08:34;2.28;;;1.70;;
12968;SDS011;6549;53.128;8.182;2022-07-12T02:11:35;1.70;;;1.60;;
12968;SDS011;6549;53.128;8.182;2022-07-12T02:14:35;2.35;;;1.90;;
12968;SDS011;6549;53.128;8.182;2022-07-12T02:17:35;1.83;;;1.65;;
12968;SDS011;6549;53.128;8.182;2022-07-12T02:20:36;3.67;;;1.90;;
12968;SDS011;6549;53.128;8.182;2022-07-12T02:23:36;1.90;;;1.80;;
12968;SDS011;6549;53.128;8.182;2022-07-12T02:26:37;2.10;;;1.90;;
12968;SDS011;6549;53.128;8.182;2022-07-12T02:29:38;2.35;;;1.70;;
12968;SDS011;6549;53.128;8.182;2022-07-12T02:32:38;1.73;;;1.63;;
12968;SDS011;6549;53.128;8.182;2022-07-12T02:35:38;1.77;;;1.48;;
12968;SDS011;6549;53.128;8.182;2022-07-12T02:38:39;1.70;;;1.60;;
12968;SDS011;6549;53.128;8.182;2022-07-12T02:41:39;1.63;;;1.52;;
12968;SDS011;6549;53.128;8.182;2022-07-12T02:44:40;2.95;;;2.10;;
12968;SDS011;6549;53.128;8.182;2022-07-12T02:47:40;2.40;;;1.90;;
12968;SDS011;6549;53.128;8.182;2022-07-12T02:50:41;2.08;;;1.88;;
12968;SDS011;6549;53.128;8.182;2022-07-12T02:53:42;1.80;;;1.70;;
12968;SDS011;6549;53.128;8.182;2022-07-12T02:56:42;1.95;;;1.80;;
12968;SDS011;6549;53.128;8.182;2022-07-12T02:59:43;1.60;;;1.50;;
12968;SDS011;6549;53.128;8.182;2022-07-12T03:02:43;1.80;;;1.70;;
12968;SDS011;6549;53.128;8.182;2022-07-12T03:05:44;1.70;;;1.60;;
12968;SDS011;6549;53.128;8.182;2022-07-12T03:08:44;2.13;;;1.75;;
12968;SDS011;6549;53.128;8.182;2022-07-12T03:11:45;2.60;;;2.00;;
12968;SDS011;6549;53.128;8.182;2022-07-12T03:14:45;3.33;;;2.00;;
12968;SDS011;6549;53.128;8.182;2022-07-12T03:17:45;3.05;;;1.95;;
12968;SDS011;6549;53.128;8.182;2022-07-12T03:20:46;1.80;;;1.70;;
12968;SDS011;6549;53.128;8.182;2022-07-12T03:23:48;2.00;;;1.80;;
12968;SDS011;6549;53.128;8.182;2022-07-12T03:26:49;3.35;;;2.20;;
12968;SDS011;6549;53.128;8.182;2022-07-12T03:29:51;2.15;;;1.80;;
12968;SDS011;6549;53.128;8.182;2022-07-12T03:32:51;2.17;;;1.75;;
12968;SDS011;6549;53.128;8.182;2022-07-12T03:35:51;1.90;;;1.70;;
12968;SDS011;6549;53.128;8.182;2022-07-12T03:38:52;1.85;;;1.75;;
12968;SDS011;6549;53.128;8.182;2022-07-12T03:41:52;2.15;;;1.92;;
12968;SDS011;6549;53.128;8.182;2022-07-12T03:44:52;2.20;;;2.00;;
12968;SDS011;6549;53.128;8.182;2022-07-12T03:47:52;2.70;;;2.08;;
12968;SDS011;6549;53.128;8.182;2022-07-12T03:50:53;3.22;;;2.13;;
12968;SDS011;6549;53.128;8.182;2022-07-12T03:53:53;3.53;;;1.77;;
12968;SDS011;6549;53.128;8.182;2022-07-12T03:56:54;1.88;;;1.67;;
12968;SDS011;6549;53.128;8.182;2022-07-12T04:00:13;2.20;;;1.77;;
12968;SDS011;6549;53.128;8.182;2022-07-12T04:03:14;3.30;;;2.63;;
12968;SDS011;6549;53.128;8.182;2022-07-12T04:06:14;2.05;;;1.90;;
12968;SDS011;6549;53.128;8.182;2022-07-12T04:09:14;1.65;;;1.55;;
12968;SDS011;6549;53.128;8.182;2022-07-12T04:12:15;2.08;;;1.50;;
12968;SDS011;6549;53.128;8.182;2022-07-12T04:15:15;2.15;;;1.90;;
12968;SDS011;6549;53.128;8.182;2022-07-12T04:18:15;1.77;;;1.65;;
12968;SDS011;6549;53.128;8.182;2022-07-12T04:21:16;2.75;;;2.20;;
12968;SDS011;6549;53.128;8.182;2022-07-12T04:24:16;2.97;;;2.35;;
12968;SDS011;6549;53.128;8.182;2022-07-12T04:27:16;2.78;;;2.10;;
12968;SDS011;6549;53.128;8.182;2022-07-12T04:30:17;2.60;;;2.20;;
12968;SDS011;6549;53.128;8.182;2022-07-12T04:33:17;1.83;;;1.70;;
12968;SDS011;6549;53.128;8.182;2022-07-12T04:36:17;2.00;;;1.80;;
12968;SDS011;6549;53.128;8.182;2022-07-12T04:39:18;1.67;;;1.58;;
12968;SDS011;6549;53.128;8.182;2022-07-12T04:42:18;1.73;;;1.60;;
12968;SDS011;6549;53.128;8.182;2022-07-12T04:45:19;1.52;;;1.42;;
12968;SDS011;6549;53.128;8.182;2022-07-12T04:48:19;2.13;;;1.92;;
12968;SDS011;6549;53.128;8.182;2022-07-12T04:51:19;2.08;;;1.88;;
12968;SDS011;6549;53.128;8.182;2022-07-12T04:54:20;2.85;;;2.10;;
12968;SDS011;6549;53.128;8.182;2022-07-12T04:57:20;3.88;;;2.90;;
12968;SDS011;6549;53.128;8.182;2022-07-12T05:00:21;2.58;;;2.30;;
12968;SDS011;6549;53.128;8.182;2022-07-12T05:03:22;2.30;;;2.03;;
12968;SDS011;6549;53.128;8.182;2022-07-12T05:06:26;3.67;;;2.70;;
12968;SDS011;6549;53.128;8.182;2022-07-12T05:09:26;3.13;;;2.35;;
12968;SDS011;6549;53.128;8.182;2022-07-12T05:12:27;2.55;;;2.35;;
12968;SDS011;6549;53.128;8.182;2022-07-12T05:15:27;3.78;;;2.60;;
12968;SDS011;6549;53.128;8.182;2022-07-12T05:18:27;6.22;;;4.38;;
12968;SDS011;6549;53.128;8.182;2022-07-12T05:21:28;4.60;;;3.25;;
12968;SDS011;6549;53.128;8.182;2022-07-12T05:24:28;3.15;;;2.67;;
12968;SDS011;6549;53.128;8.182;2022-07-12T05:27:29;2.38;;;2.17;;
12968;SDS011;6549;53.128;8.182;2022-07-12T05:30:30;3.33;;;2.40;;
12968;SDS011;6549;53.128;8.182;2022-07-12T05:33:31;2.40;;;2.17;;
12968;SDS011;6549;53.128;8.182;2022-07-12T05:36:31;6.00;;;4.25;;
12968;SDS011;6549;53.128;8.182;2022-07-12T05:39:32;4.53;;;3.50;;
12968;SDS011;6549;53.128;8.182;2022-07-12T05:42:32;6.32;;;4.82;;
12968;SDS011;6549;53.128;8.182;2022-07-12T05:45:32;5.15;;;3.35;;
12968;SDS011;6549;53.128;8.182;2022-07-12T05:48:32;5.10;;;3.33;;
12968;SDS011;6549;53.128;8.182;2022-07-12T05:51:33;4.45;;;3.85;;
12968;SDS011;6549;53.128;8.182;2022-07-12T05:54:52;5.15;;;3.90;;
12968;SDS011;6549;53.128;8.182;2022-07-12T05:57:52;4.63;;;3.85;;
12968;SDS011;6549;53.128;8.182;2022-07-12T06:00:52;4.85;;;3.60;;
12968;SDS011;6549;53.128;8.182;2022-07-12T06:03:53;4.57;;;3.80;;
12968;SDS011;6549;53.128;8.182;2022-07-12T06:06:53;4.22;;;3.47;;
12968;SDS011;6549;53.128;8.182;2022-07-12T06:09:53;4.57;;;3.58;;
12968;SDS011;6549;53.128;8.182;2022-07-12T06:12:54;3.67;;;2.88;;
12968;SDS011;6549;53.128;8.182;2022-07-12T06:15:54;4.85;;;3.35;;
12968;SDS011;6549;53.128;8.182;2022-07-12T06:18:59;4.75;;;3.40;;
12968;SDS011;6549;53.128;8.182;2022-07-12T06:21:59;4.28;;;3.22;;
12968;SDS011;6549;53.128;8.182;2022-07-12T06:25:00;4.55;;;3.45;;
12968;SDS011;6549;53.128;8.182;2022-07-12T06:28:01;4.80;;;3.45;;
12968;SDS011;6549;53.128;8.182;2022-07-12T06:31:01;2.58;;;2.38;;
12968;SDS011;6549;53.128;8.182;2022-07-12T06:34:02;3.05;;;2.75;;
12968;SDS011;6549;53.128;8.182;2022-07-12T06:37:03;3.72;;;3.33;;
12968;SDS011;6549;53.128;8.182;2022-07-12T06:40:03;5.10;;;4.45;;
12968;SDS011;6549;53.128;8.182;2022-07-12T06:43:08;6.10;;;5.07;;
12968;SDS011;6549;53.128;8.182;2022-07-12T06:46:10;5.45;;;4.63;;
12968;SDS011;6549;53.128;8.182;2022-07-12T06:49:10;5.25;;;4.05;;
12968;SDS011;6549;53.128;8.182;2022-07-12T06:52:10;4.40;;;3.92;;
12968;SDS011;6549;53.128;8.182;2022-07-12T06:55:11;4.47;;;4.07;;
12968;SDS011;6549;53.128;8.182;2022-07-12T06:58:11;3.65;;;3.30;;
12968;SDS011;6549;53.128;8.182;2022-07-12T07:01:12;6.15;;;4.65;;
12968;SDS011;6549;53.128;8.182;2022-07-12T07:04:12;5.75;;;5.00;;
12968;SDS011;6549;53.128;8.182;2022-07-12T07:07:12;5.60;;;4.43;;
12968;SDS011;6549;53.128;8.182;2022-07-12T07:10:13;6.03;;;4.95;;
12968;SDS011;6549;53.128;8.182;2022-07-12T07:13:13;6.38;;;5.00;;
12968;SDS011;6549;53.128;8.182;2022-07-12T07:16:14;6.25;;;4.97;;
12968;SDS011;6549;53.128;8.182;2022-07-12T07:19:14;6.35;;;5.07;;
12968;SDS011;6549;53.128;8.182;2022-07-12T07:22:15;6.88;;;5.10;;
12968;SDS011;6549;53.128;8.182;2022-07-12T07:25:15;6.38;;;4.75;;
12968;SDS011;6549;53.128;8.182;2022-07-12T07:28:16;6.53;;;4.95;;
12968;SDS011;6549;53.128;8.182;2022-07-12T07:31:16;6.97;;;4.72;;
12968;SDS011;6549;53.128;8.182;2022-07-12T07:34:16;6.03;;;4.95;;
12968;SDS011;6549;53.128;8.182;2022-07-12T07:37:17;5.20;;;4.30;;
12968;SDS011;6549;53.128;8.182;2022-07-12T07:40:17;6.32;;;4.50;;
12968;SDS011;6549;53.128;8.182;2022-07-12T07:43:17;5.70;;;4.68;;
12968;SDS011;6549;53.128;8.182;2022-07-12T07:46:18;5.80;;;4.18;;
12968;SDS011;6549;53.128;8.182;2022-07-12T07:49:18;7.80;;;4.93;;
12968;SDS011;6549;53.128;8.182;2022-07-12T07:52:19;5.22;;;4.05;;
12968;SDS011;6549;53.128;8.182;2022-07-12T07:55:19;6.00;;;4.20;;
12968;SDS011;6549;53.128;8.182;2022-07-12T07:58:19;6.25;;;4.57;;
12968;SDS011;6549;53.128;8.182;2022-07-12T08:01:22;6.43;;;4.57;;
12968;SDS011;6549;53.128;8.182;2022-07-12T08:04:42;5.15;;;3.72;;
12968;SDS011;6549;53.128;8.182;2022-07-12T08:07:42;5.03;;;3.70;;
12968;SDS011;6549;53.128;8.182;2022-07-12T08:10:43;5.22;;;3.40;;
12968;SDS011;6549;53.128;8.182;2022-07-12T08:13:43;5.70;;;3.75;;
12968;SDS011;6549;53.128;8.182;2022-07-12T08:16:43;6.95;;;3.70;;
12968;SDS011;6549;53.128;8.182;2022-07-12T08:19:44;4.28;;;3.22;;
12968;SDS011;6549;53.128;8.182;2022-07-12T08:22:44;3.80;;;3.05;;
12968;SDS011;6549;53.128;8.182;2022-07-12T08:25:45;3.10;;;2.63;;
12968;SDS011;6549;53.128;8.182;2022-07-12T08:28:45;3.95;;;3.20;;
12968;SDS011;6549;53.128;8.182;2022-07-12T08:31:46;3.70;;;2.92;;
12968;SDS011;6549;53.128;8.182;2022-07-12T08:34:47;3.03;;;2.72;;
12968;SDS011;6549;53.128;8.182;2022-07-12T08:37:50;4.63;;;3.67;;
12968;SDS011;6549;53.128;8.182;2022-07-12T08:40:50;2.85;;;2.60;;
12968;SDS011;6549;53.128;8.182;2022-07-12T08:43:51;5.30;;;3.30;;
12968;SDS011;6549;53.128;8.182;2022-07-12T08:46:51;5.05;;;3.47;;
12968;SDS011;6549;53.128;8.182;2022-07-12T08:50:12;3.58;;;2.50;;
12968;SDS011;6549;53.128;8.182;2022-07-12T08:53:12;3.80;;;3.28;;
12968;SDS011;6549;53.128;8.182;2022-07-12T08:59:32;5.20;;;4.10;;
12968;SDS011;6549;53.128;8.182;2022-07-12T09:06:04;5.10;;;4.40;;
12968;SDS011;6549;53.128;8.182;2022-07-12T09:09:05;4.10;;;3.70;;
12968;SDS011;6549;53.128;8.182;2022-07-12T09:12:08;4.82;;;3.70;;
12968;SDS011;6549;53.128;8.182;2022-07-12T09:15:22;3.95;;;3.40;;
12968;SDS011;6549;53.128;8.182;2022-07-12T09:18:26;4.15;;;3.17;;
12968;SDS011;6549;53.128;8.182;2022-07-12T09:21:56;2.65;;;2.25;;
12968;SDS011;6549;53.128;8.182;2022-07-12T09:24:56;3.90;;;3.47;;
12968;SDS011;6549;53.128;8.182;2022-07-12T09:27:57;4.45;;;3.28;;
12968;SDS011;6549;53.128;8.182;2022-07-12T09:30:58;5.60;;;4.30;;
12968;SDS011;6549;53.128;8.182;2022-07-12T09:33:59;3.67;;;3.15;;
12968;SDS011;6549;53.128;8.182;2022-07-12T09:37:18;5.72;;;4.00;;
12968;SDS011;6549;53.128;8.182;2022-07-12T09:40:20;4.07;;;2.72;;
12968;SDS011;6549;53.128;8.182;2022-07-12T09:43:20;3.53;;;2.95;;
12968;SDS011;6549;53.128;8.182;2022-07-12T09:46:22;4.05;;;3.28;;
12968;SDS011;6549;53.128;8.182;2022-07-12T09:49:24;4.20;;;2.83;;
12968;SDS011;6549;53.128;8.182;2022-07-12T09:52:26;3.60;;;3.03;;
12968;SDS011;6549;53.128;8.182;2022-07-12T09:55:27;2.70;;;2.30;;
12968;SDS011;6549;53.128;8.182;2022-07-12T09:58:30;5.55;;;2.70;;
12968;SDS011;6549;53.128;8.182;2022-07-12T10:01:34;5.30;;;3.50;;
12968;SDS011;6549;53.128;8.182;2022-07-12T10:04:36;3.20;;;2.90;;
12968;SDS011;6549;53.128;8.182;2022-07-12T10:07:38;4.10;;;3.20;;
12968;SDS011;6549;53.128;8.182;2022-07-12T10:10:38;2.75;;;2.20;;
12968;SDS011;6549;53.128;8.182;2022-07-12T10:13:39;2.30;;;1.80;;
12968;SDS011;6549;53.128;8.182;2022-07-12T10:16:41;2.30;;;1.83;;
12968;SDS011;6549;53.128;8.182;2022-07-12T10:22:44;3.10;;;1.80;;
12968;SDS011;6549;53.128;8.182;2022-07-12T10:32:01;2.28;;;1.27;;
12968;SDS011;6549;53.128;8.182;2022-07-12T10:35:02;0.80;;;0.80;;
12968;SDS011;6549;53.128;8.182;2022-07-12T10:41:15;2.83;;;1.30;;
12968;SDS011;6549;53.128;8.182;2022-07-12T10:44:32;2.15;;;1.65;;
12968;SDS011;6549;53.128;8.182;2022-07-12T10:47:54;1.63;;;1.50;;
12968;SDS011;6549;53.128;8.182;2022-07-12T10:50:55;1.38;;;1.25;;
12968;SDS011;6549;53.128;8.182;2022-07-12T10:53:57;1.45;;;1.00;;
12968;SDS011;6549;53.128;8.182;2022-07-12T11:00:58;0.88;;;0.88;;
12968;SDS011;6549;53.128;8.182;2022-07-12T11:04:05;1.10;;;0.85;;
12968;SDS011;6549;53.128;8.182;2022-07-12T11:07:07;2.08;;;1.17;;
12968;SDS011;6549;53.128;8.182;2022-07-12T11:10:11;1.33;;;0.82;;
12968;SDS011;6549;53.128;8.182;2022-07-12T11:13:22;1.30;;;1.00;;
12968;SDS011;6549;53.128;8.182;2022-07-12T11:16:24;1.15;;;0.65;;
12968;SDS011;6549;53.128;8.182;2022-07-12T11:19:28;1.38;;;1.08;;
12968;SDS011;6549;53.128;8.182;2022-07-12T11:22:30;2.75;;;1.10;;
12968;SDS011;6549;53.128;8.182;2022-07-12T11:25:31;1.08;;;1.00;;
12968;SDS011;6549;53.128;8.182;2022-07-12T11:28:31;1.00;;;0.85;;
12968;SDS011;6549;53.128;8.182;2022-07-12T11:31:33;0.80;;;0.80;;
12968;SDS011;6549;53.128;8.182;2022-07-12T11:34:34;0.88;;;0.88;;
12968;SDS011;6549;53.128;8.182;2022-07-12T11:37:34;0.85;;;0.70;;
12968;SDS011;6549;53.128;8.182;2022-07-12T11:40:35;1.45;;;0.90;;
12968;SDS011;6549;53.128;8.182;2022-07-12T11:43:36;2.50;;;0.70;;
12968;SDS011;6549;53.128;8.182;2022-07-12T11:46:37;0.60;;;0.60;;
12968;SDS011;6549;53.128;8.182;2022-07-12T11:49:50;0.73;;;0.73;;
12968;SDS011;6549;53.128;8.182;2022-07-12T11:52:53;1.48;;;0.60;;
12968;SDS011;6549;53.128;8.182;2022-07-12T11:55:57;0.70;;;0.70;;
12968;SDS011;6549;53.128;8.182;2022-07-12T11:58:58;1.08;;;0.80;;
12968;SDS011;6549;53.128;8.182;2022-07-12T12:02:03;0.60;;;0.60;;
12968;SDS011;6549;53.128;8.182;2022-07-12T12:05:07;0.68;;;0.68;;
12968;SDS011;6549;53.128;8.182;2022-07-12T12:08:08;0.70;;;0.70;;
12968;SDS011;6549;53.128;8.182;2022-07-12T12:11:12;1.38;;;0.57;;
12968;SDS011;6549;53.128;8.182;2022-07-12T12:14:13;0.75;;;0.60;;
12968;SDS011;6549;53.128;8.182;2022-07-12T12:17:14;0.93;;;0.60;;
12968;SDS011;6549;53.128;8.182;2022-07-12T12:20:37;1.05;;;0.73;;
12968;SDS011;6549;53.128;8.182;2022-07-12T12:23:37;0.70;;;0.70;;
12968;SDS011;6549;53.128;8.182;2022-07-12T12:26:39;0.70;;;0.70;;
12968;SDS011;6549;53.128;8.182;2022-07-12T12:29:40;0.82;;;0.80;;
12968;SDS011;6549;53.128;8.182;2022-07-12T12:35:45;0.65;;;0.65;;
12968;SDS011;6549;53.128;8.182;2022-07-12T12:38:45;1.63;;;0.73;;
12968;SDS011;6549;53.128;8.182;2022-07-12T12:41:46;1.35;;;0.70;;
12968;SDS011;6549;53.128;8.182;2022-07-12T12:44:46;1.20;;;0.60;;
12968;SDS011;6549;53.128;8.182;2022-07-12T12:47:54;0.82;;;0.80;;
12968;SDS011;6549;53.128;8.182;2022-07-12T12:54:07;0.80;;;0.80;;
12968;SDS011;6549;53.128;8.182;2022-07-12T12:57:08;1.33;;;0.90;;
12968;SDS011;6549;53.128;8.182;2022-07-12T13:00:09;0.75;;;0.75;;
12968;SDS011;6549;53.128;8.182;2022-07-12T13:03:11;1.50;;;0.70;;
12968;SDS011;6549;53.128;8.182;2022-07-12T13:06:13;0.70;;;0.70;;
12968;SDS011;6549;53.128;8.182;2022-07-12T13:09:13;0.70;;;0.70;;
12968;SDS011;6549;53.128;8.182;2022-07-12T13:12:13;1.00;;;0.90;;
12968;SDS011;6549;53.128;8.182;2022-07-12T13:15:14;1.10;;;0.80;;
12968;SDS011;6549;53.128;8.182;2022-07-12T13:18:14;0.85;;;0.80;;
12968;SDS011;6549;53.128;8.182;2022-07-12T13:21:15;0.98;;;0.70;;
12968;SDS011;6549;53.128;8.182;2022-07-12T13:24:17;1.60;;;1.13;;
12968;SDS011;6549;53.128;8.182;2022-07-12T13:27:17;0.93;;;0.80;;
12968;SDS011;6549;53.128;8.182;2022-07-12T13:30:18;0.70;;;0.70;;
12968;SDS011;6549;53.128;8.182;2022-07-12T13:33:19;1.02;;;0.93;;
12968;SDS011;6549;53.128;8.182;2022-07-12T13:36:21;0.82;;;0.82;;
12968;SDS011;6549;53.128;8.182;2022-07-12T13:39:21;2.83;;;1.30;;
12968;SDS011;6549;53.128;8.182;2022-07-12T13:42:41;1.10;;;0.98;;
12968;SDS011;6549;53.128;8.182;2022-07-12T13:45:45;1.88;;;1.30;;
12968;SDS011;6549;53.128;8.182;2022-07-12T13:48:45;1.27;;;1.13;;
12968;SDS011;6549;53.128;8.182;2022-07-12T13:51:46;1.25;;;1.13;;
12968;SDS011;6549;53.128;8.182;2022-07-12T13:54:46;1.73;;;1.30;;
12968;SDS011;6549;53.128;8.182;2022-07-12T13:57:46;1.40;;;1.30;;
12968;SDS011;6549;53.128;8.182;2022-07-12T14:00:48;1.35;;;1.25;;
12968;SDS011;6549;53.128;8.182;2022-07-12T14:06:49;1.47;;;1.37;;
12968;SDS011;6549;53.128;8.182;2022-07-12T14:09:50;1.73;;;1.23;;
12968;SDS011;6549;53.128;8.182;2022-07-12T14:12:50;1.50;;;1.30;;
12968;SDS011;6549;53.128;8.182;2022-07-12T14:15:50;1.40;;;1.30;;
12968;SDS011;6549;53.128;8.182;2022-07-12T14:18:51;1.40;;;1.30;;
12968;SDS011;6549;53.128;8.182;2022-07-12T14:21:51;1.30;;;1.20;;
12968;SDS011;6549;53.128;8.182;2022-07-12T14:24:51;1.50;;;1.25;;
12968;SDS011;6549;53.128;8.182;2022-07-12T14:27:52;1.70;;;1.27;;
12968;SDS011;6549;53.128;8.182;2022-07-12T14:30:52;2.97;;;1.40;;
12968;SDS011;6549;53.128;8.182;2022-07-12T14:33:56;1.50;;;1.40;;
12968;SDS011;6549;53.128;8.182;2022-07-12T14:36:56;1.83;;;1.20;;
12968;SDS011;6549;53.128;8.182;2022-07-12T14:39:57;1.63;;;1.20;;
12968;SDS011;6549;53.128;8.182;2022-07-12T14:42:57;1.58;;;1.42;;
12968;SDS011;6549;53.128;8.182;2022-07-12T14:45:58;1.58;;;1.48;;
12968;SDS011;6549;53.128;8.182;2022-07-12T14:48:58;2.10;;;1.30;;
12968;SDS011;6549;53.128;8.182;2022-07-12T14:51:59;1.40;;;1.30;;
12968;SDS011;6549;53.128;8.182;2022-07-12T14:54:59;1.35;;;1.25;;
12968;SDS011;6549;53.128;8.182;2022-07-12T14:58:00;1.50;;;1.40;;
12968;SDS011;6549;53.128;8.182;2022-07-12T15:01:01;1.40;;;1.30;;
12968;SDS011;6549;53.128;8.182;2022-07-12T15:04:02;1.40;;;1.30;;
12968;SDS011;6549;53.128;8.182;2022-07-12T15:07:02;2.00;;;1.40;;
12968;SDS011;6549;53.128;8.182;2022-07-12T15:10:03;1.10;;;1.00;;
12968;SDS011;6549;53.128;8.182;2022-07-12T15:13:03;2.17;;;1.27;;
12968;SDS011;6549;53.128;8.182;2022-07-12T15:16:04;2.30;;;1.30;;
12968;SDS011;6549;53.128;8.182;2022-07-12T15:19:05;1.30;;;1.20;;
12968;SDS011;6549;53.128;8.182;2022-07-12T15:22:05;1.33;;;1.23;;
12968;SDS011;6549;53.128;8.182;2022-07-12T15:25:06;1.45;;;1.27;;
12968;SDS011;6549;53.128;8.182;2022-07-12T15:28:06;1.38;;;1.27;;
12968;SDS011;6549;53.128;8.182;2022-07-12T15:31:07;1.73;;;1.10;;
12968;SDS011;6549;53.128;8.182;2022-07-12T15:34:07;1.15;;;1.13;;
12968;SDS011;6549;53.128;8.182;2022-07-12T15:37:08;2.38;;;1.60;;
12968;SDS011;6549;53.128;8.182;2022-07-12T15:40:08;2.03;;;1.30;;
12968;SDS011;6549;53.128;8.182;2022-07-12T15:43:09;1.58;;;1.48;;
12968;SDS011;6549;53.128;8.182;2022-07-12T15:46:11;1.50;;;1.40;;
12968;SDS011;6549;53.128;8.182;2022-07-12T15:49:11;1.60;;;1.00;;
12968;SDS011;6549;53.128;8.182;2022-07-12T15:52:13;1.05;;;1.00;;
12968;SDS011;6549;53.128;8.182;2022-07-12T15:55:32;1.77;;;1.20;;
12968;SDS011;6549;53.128;8.182;2022-07-12T15:58:33;1.60;;;1.10;;
12968;SDS011;6549;53.128;8.182;2022-07-12T16:01:39;1.70;;;1.08;;
12968;SDS011;6549;53.128;8.182;2022-07-12T16:04:39;1.08;;;1.08;;
12968;SDS011;6549;53.128;8.182;2022-07-12T16:07:39;2.20;;;1.52;;
12968;SDS011;6549;53.128;8.182;2022-07-12T16:10:40;2.72;;;1.98;;
12968;SDS011;6549;53.128;8.182;2022-07-12T16:13:41;5.63;;;2.33;;
12968;SDS011;6549;53.128;8.182;2022-07-12T16:16:41;1.10;;;1.10;;
12968;SDS011;6549;53.128;8.182;2022-07-12T16:19:41;0.80;;;0.80;;
12968;SDS011;6549;53.128;8.182;2022-07-12T16:22:45;1.65;;;0.90;;
12968;SDS011;6549;53.128;8.182;2022-07-12T16:25:45;1.45;;;1.20;;
12968;SDS011;6549;53.128;8.182;2022-07-12T16:28:45;1.35;;;1.20;;
12968;SDS011;6549;53.128;8.182;2022-07-12T16:31:45;2.13;;;1.08;;
12968;SDS011;6549;53.128;8.182;2022-07-12T16:34:46;1.10;;;1.00;;
12968;SDS011;6549;53.128;8.182;2022-07-12T16:37:46;2.17;;;1.02;;
12968;SDS011;6549;53.128;8.182;2022-07-12T16:40:47;1.13;;;1.02;;
12968;SDS011;6549;53.128;8.182;2022-07-12T16:43:47;0.90;;;0.90;;
12968;SDS011;6549;53.128;8.182;2022-07-12T16:46:48;1.00;;;0.90;;
12968;SDS011;6549;53.128;8.182;2022-07-12T16:49:48;0.80;;;0.80;;
12968;SDS011;6549;53.128;8.182;2022-07-12T16:52:49;1.00;;;1.00;;
12968;SDS011;6549;53.128;8.182;2022-07-12T16:55:49;1.00;;;1.00;;
12968;SDS011;6549;53.128;8.182;2022-07-12T16:58:51;1.85;;;1.02;;
12968;SDS011;6549;53.128;8.182;2022-07-12T17:01:52;2.00;;;1.10;;
12968;SDS011;6549;53.128;8.182;2022-07-12T17:04:53;2.53;;;1.00;;
12968;SDS011;6549;53.128;8.182;2022-07-12T17:07:53;1.85;;;1.10;;
12968;SDS011;6549;53.128;8.182;2022-07-12T17:10:54;1.50;;;1.35;;
12968;SDS011;6549;53.128;8.182;2022-07-12T17:16:56;1.23;;;0.95;;
12968;SDS011;6549;53.128;8.182;2022-07-12T17:19:56;1.80;;;0.95;;
12968;SDS011;6549;53.128;8.182;2022-07-12T17:22:56;1.52;;;1.00;;
12968;SDS011;6549;53.128;8.182;2022-07-12T17:25:57;1.90;;;1.17;;
12968;SDS011;6549;53.128;8.182;2022-07-12T17:28:57;1.92;;;1.40;;
12968;SDS011;6549;53.128;8.182;2022-07-12T17:31:58;1.67;;;1.15;;
12968;SDS011;6549;53.128;8.182;2022-07-12T17:34:58;0.98;;;0.98;;
12968;SDS011;6549;53.128;8.182;2022-07-12T17:37:58;1.33;;;0.90;;
12968;SDS011;6549;53.128;8.182;2022-07-12T17:40:59;1.40;;;1.20;;
12968;SDS011;6549;53.128;8.182;2022-07-12T17:43:59;1.10;;;1.00;;
12968;SDS011;6549;53.128;8.182;2022-07-12T17:46:59;0.95;;;0.95;;
12968;SDS011;6549;53.128;8.182;2022-07-12T17:50:00;1.20;;;1.10;;
12968;SDS011;6549;53.128;8.182;2022-07-12T17:53:01;1.20;;;1.05;;
12968;SDS011;6549;53.128;8.182;2022-07-12T17:56:01;1.35;;;0.98;;
12968;SDS011;6549;53.128;8.182;2022-07-12T17:59:01;1.85;;;0.90;;
12968;SDS011;6549;53.128;8.182;2022-07-12T18:02:02;0.70;;;0.70;;
12968;SDS011;6549;53.128;8.182;2022-07-12T18:05:07;1.88;;;1.02;;
12968;SDS011;6549;53.128;8.182;2022-07-12T18:08:07;1.23;;;0.90;;
12968;SDS011;6549;53.128;8.182;2022-07-12T18:11:08;1.65;;;1.30;;
12968;SDS011;6549;53.128;8.182;2022-07-12T18:14:27;1.25;;;1.00;;
12968;SDS011;6549;53.128;8.182;2022-07-12T18:17:42;1.13;;;0.90;;
12968;SDS011;6549;53.128;8.182;2022-07-12T18:21:01;4.63;;;1.02;;
12968;SDS011;6549;53.128;8.182;2022-07-12T18:24:01;1.00;;;1.00;;
12968;SDS011;6549;53.128;8.182;2022-07-12T18:27:02;1.25;;;1.15;;
12968;SDS011;6549;53.128;8.182;2022-07-12T18:30:03;2.35;;;1.30;;
12968;SDS011;6549;53.128;8.182;2022-07-12T18:33:03;1.95;;;1.30;;
12968;SDS011;6549;53.128;8.182;2022-07-12T18:36:04;1.17;;;1.00;;
12968;SDS011;6549;53.128;8.182;2022-07-12T18:39:05;1.38;;;1.10;;
12968;SDS011;6549;53.128;8.182;2022-07-12T18:42:06;1.33;;;1.02;;
12968;SDS011;6549;53.128;8.182;2022-07-12T18:45:10;1.30;;;1.20;;
12968;SDS011;6549;53.128;8.182;2022-07-12T18:48:10;1.30;;;1.20;;
12968;SDS011;6549;53.128;8.182;2022-07-12T18:51:10;1.40;;;1.30;;
12968;SDS011;6549;53.128;8.182;2022-07-12T18:54:11;3.00;;;2.45;;
12968;SDS011;6549;53.128;8.182;2022-07-12T18:57:11;3.60;;;2.83;;
12968;SDS011;6549;53.128;8.182;2022-07-12T19:00:12;3.30;;;2.53;;
12968;SDS011;6549;53.128;8.182;2022-07-12T19:03:12;2.63;;;2.20;;
12968;SDS011;6549;53.128;8.182;2022-07-12T19:06:13;2.75;;;2.10;;